sensor_id;sensor_type;location;lat;lon;timestamp;P1;durP1;ratioP1;P2;durP2;ratioP2
73729;SDS011;62036;48.128;16.458;2023-04-24T00:01:59;4.05;;;1.70;;
73729;SDS011;62036;48.128;16.458;2023-04-24T00:04:25;2.22;;;1.48;;
73729;SDS011;62036;48.128;16.458;2023-04-24T00:06:52;2.03;;;1.77;;
73729;SDS011;62036;48.128;16.458;2023-04-24T00:09:22;1.67;;;1.58;;
73729;SDS011;62036;48.128;16.458;2023-04-24T00:11:48;2.30;;;1.42;;
73729;SDS011;62036;48.128;16.458;2023-04-24T00:14:14;4.68;;;2.13;;
73729;SDS011;62036;48.128;16.458;2023-04-24T00:16:40;1.73;;;1.30;;
73729;SDS011;62036;48.128;16.458;2023-04-24T00:19:06;3.28;;;1.73;;
73729;SDS011;62036;48.128;16.458;2023-04-24T00:21:32;3.38;;;1.58;;
73729;SDS011;62036;48.128;16.458;2023-04-24T00:23:58;2.90;;;1.73;;
73729;SDS011;62036;48.128;16.458;2023-04-24T00:26:24;1.92;;;1.50;;
73729;SDS011;62036;48.128;16.458;2023-04-24T00:28:50;3.50;;;1.95;;
73729;SDS011;62036;48.128;16.458;2023-04-24T00:31:16;2.20;;;1.70;;
73729;SDS011;62036;48.128;16.458;2023-04-24T00:33:42;2.83;;;2.03;;
73729;SDS011;62036;48.128;16.458;2023-04-24T00:36:08;2.45;;;1.50;;
73729;SDS011;62036;48.128;16.458;2023-04-24T00:38:34;2.58;;;2.05;;
73729;SDS011;62036;48.128;16.458;2023-04-24T00:41:01;2.17;;;1.80;;
73729;SDS011;62036;48.128;16.458;2023-04-24T00:43:27;3.00;;;2.05;;
73729;SDS011;62036;48.128;16.458;2023-04-24T00:45:53;2.55;;;1.83;;
73729;SDS011;62036;48.128;16.458;2023-04-24T00:48:20;2.60;;;1.73;;
73729;SDS011;62036;48.128;16.458;2023-04-24T00:50:46;3.40;;;1.60;;
73729;SDS011;62036;48.128;16.458;2023-04-24T00:53:12;3.40;;;1.85;;
73729;SDS011;62036;48.128;16.458;2023-04-24T00:55:38;3.10;;;1.90;;
73729;SDS011;62036;48.128;16.458;2023-04-24T00:58:04;2.22;;;1.60;;
73729;SDS011;62036;48.128;16.458;2023-04-24T01:00:30;3.45;;;2.05;;
73729;SDS011;62036;48.128;16.458;2023-04-24T01:02:57;2.30;;;1.70;;
73729;SDS011;62036;48.128;16.458;2023-04-24T01:05:24;3.33;;;2.13;;
73729;SDS011;62036;48.128;16.458;2023-04-24T01:07:51;3.70;;;2.10;;
73729;SDS011;62036;48.128;16.458;2023-04-24T01:10:17;2.72;;;1.95;;
73729;SDS011;62036;48.128;16.458;2023-04-24T01:12:45;2.13;;;1.50;;
73729;SDS011;62036;48.128;16.458;2023-04-24T01:15:11;2.28;;;1.70;;
73729;SDS011;62036;48.128;16.458;2023-04-24T01:17:37;3.17;;;1.98;;
73729;SDS011;62036;48.128;16.458;2023-04-24T01:20:04;3.15;;;1.92;;
73729;SDS011;62036;48.128;16.458;2023-04-24T01:22:30;1.95;;;1.63;;
73729;SDS011;62036;48.128;16.458;2023-04-24T01:24:56;3.15;;;2.03;;
73729;SDS011;62036;48.128;16.458;2023-04-24T01:27:23;2.45;;;1.83;;
73729;SDS011;62036;48.128;16.458;2023-04-24T01:29:49;2.30;;;2.10;;
73729;SDS011;62036;48.128;16.458;2023-04-24T01:32:16;2.92;;;2.05;;
73729;SDS011;62036;48.128;16.458;2023-04-24T01:34:43;2.90;;;2.30;;
73729;SDS011;62036;48.128;16.458;2023-04-24T01:37:10;2.92;;;2.03;;
73729;SDS011;62036;48.128;16.458;2023-04-24T01:39:36;1.83;;;1.73;;
73729;SDS011;62036;48.128;16.458;2023-04-24T01:42:02;3.10;;;2.10;;
73729;SDS011;62036;48.128;16.458;2023-04-24T01:44:28;3.78;;;2.20;;
73729;SDS011;62036;48.128;16.458;2023-04-24T01:46:54;3.85;;;1.83;;
73729;SDS011;62036;48.128;16.458;2023-04-24T01:49:20;2.65;;;1.73;;
73729;SDS011;62036;48.128;16.458;2023-04-24T01:51:46;3.58;;;1.80;;
73729;SDS011;62036;48.128;16.458;2023-04-24T01:54:13;3.20;;;2.28;;
73729;SDS011;62036;48.128;16.458;2023-04-24T01:56:40;3.50;;;1.70;;
73729;SDS011;62036;48.128;16.458;2023-04-24T01:59:07;3.38;;;2.03;;
73729;SDS011;62036;48.128;16.458;2023-04-24T02:01:35;5.40;;;2.10;;
73729;SDS011;62036;48.128;16.458;2023-04-24T02:04:01;3.63;;;2.10;;
73729;SDS011;62036;48.128;16.458;2023-04-24T02:06:27;4.07;;;2.60;;
73729;SDS011;62036;48.128;16.458;2023-04-24T02:08:53;1.63;;;1.52;;
73729;SDS011;62036;48.128;16.458;2023-04-24T02:11:19;2.50;;;1.95;;
73729;SDS011;62036;48.128;16.458;2023-04-24T02:13:45;3.80;;;2.45;;
73729;SDS011;62036;48.128;16.458;2023-04-24T02:16:11;3.33;;;2.38;;
73729;SDS011;62036;48.128;16.458;2023-04-24T02:18:37;3.30;;;2.28;;
73729;SDS011;62036;48.128;16.458;2023-04-24T02:21:03;5.43;;;2.42;;
73729;SDS011;62036;48.128;16.458;2023-04-24T02:23:29;2.78;;;2.10;;
73729;SDS011;62036;48.128;16.458;2023-04-24T02:25:55;3.25;;;2.47;;
73729;SDS011;62036;48.128;16.458;2023-04-24T02:28:21;3.90;;;2.22;;
73729;SDS011;62036;48.128;16.458;2023-04-24T02:30:47;2.00;;;1.65;;
73729;SDS011;62036;48.128;16.458;2023-04-24T02:33:13;4.35;;;1.80;;
73729;SDS011;62036;48.128;16.458;2023-04-24T02:35:39;3.47;;;2.35;;
73729;SDS011;62036;48.128;16.458;2023-04-24T02:38:05;2.10;;;1.63;;
73729;SDS011;62036;48.128;16.458;2023-04-24T02:40:31;4.13;;;2.03;;
73729;SDS011;62036;48.128;16.458;2023-04-24T02:42:57;2.60;;;1.70;;
73729;SDS011;62036;48.128;16.458;2023-04-24T02:45:23;1.65;;;1.20;;
73729;SDS011;62036;48.128;16.458;2023-04-24T02:47:49;1.25;;;1.08;;
73729;SDS011;62036;48.128;16.458;2023-04-24T02:50:15;1.23;;;1.02;;
73729;SDS011;62036;48.128;16.458;2023-04-24T02:52:41;1.20;;;0.80;;
73729;SDS011;62036;48.128;16.458;2023-04-24T02:55:08;1.98;;;1.25;;
73729;SDS011;62036;48.128;16.458;2023-04-24T02:57:34;1.73;;;1.35;;
73729;SDS011;62036;48.128;16.458;2023-04-24T03:00:00;1.80;;;1.00;;
73729;SDS011;62036;48.128;16.458;2023-04-24T03:02:26;2.47;;;1.15;;
73729;SDS011;62036;48.128;16.458;2023-04-24T03:04:52;1.60;;;1.00;;
73729;SDS011;62036;48.128;16.458;2023-04-24T03:07:18;1.63;;;1.15;;
73729;SDS011;62036;48.128;16.458;2023-04-24T03:09:45;1.95;;;1.38;;
73729;SDS011;62036;48.128;16.458;2023-04-24T03:12:11;1.48;;;0.65;;
73729;SDS011;62036;48.128;16.458;2023-04-24T03:14:37;1.58;;;1.08;;
73729;SDS011;62036;48.128;16.458;2023-04-24T03:17:03;1.45;;;1.30;;
73729;SDS011;62036;48.128;16.458;2023-04-24T03:19:29;1.13;;;0.90;;
73729;SDS011;62036;48.128;16.458;2023-04-24T03:21:56;1.65;;;1.15;;
73729;SDS011;62036;48.128;16.458;2023-04-24T03:24:22;1.00;;;0.75;;
73729;SDS011;62036;48.128;16.458;2023-04-24T03:26:48;1.00;;;0.85;;
73729;SDS011;62036;48.128;16.458;2023-04-24T03:29:14;1.83;;;0.68;;
73729;SDS011;62036;48.128;16.458;2023-04-24T03:31:40;1.85;;;1.70;;
73729;SDS011;62036;48.128;16.458;2023-04-24T03:34:06;2.05;;;0.85;;
73729;SDS011;62036;48.128;16.458;2023-04-24T03:36:32;0.90;;;0.65;;
73729;SDS011;62036;48.128;16.458;2023-04-24T03:38:58;1.10;;;1.00;;
73729;SDS011;62036;48.128;16.458;2023-04-24T03:41:24;1.88;;;1.35;;
73729;SDS011;62036;48.128;16.458;2023-04-24T03:43:50;0.90;;;0.70;;
73729;SDS011;62036;48.128;16.458;2023-04-24T03:46:16;2.00;;;0.90;;
73729;SDS011;62036;48.128;16.458;2023-04-24T03:48:43;2.17;;;1.17;;
73729;SDS011;62036;48.128;16.458;2023-04-24T03:51:09;0.88;;;0.80;;
73729;SDS011;62036;48.128;16.458;2023-04-24T03:53:35;0.95;;;0.85;;
73729;SDS011;62036;48.128;16.458;2023-04-24T03:56:01;1.98;;;1.20;;
73729;SDS011;62036;48.128;16.458;2023-04-24T03:58:27;5.00;;;0.63;;
73729;SDS011;62036;48.128;16.458;2023-04-24T04:00:53;1.58;;;0.88;;
73729;SDS011;62036;48.128;16.458;2023-04-24T04:03:19;1.95;;;0.80;;
73729;SDS011;62036;48.128;16.458;2023-04-24T04:05:45;1.38;;;0.95;;
73729;SDS011;62036;48.128;16.458;2023-04-24T04:08:11;0.95;;;0.80;;
73729;SDS011;62036;48.128;16.458;2023-04-24T04:10:37;1.73;;;0.82;;
73729;SDS011;62036;48.128;16.458;2023-04-24T04:13:03;1.58;;;0.95;;
73729;SDS011;62036;48.128;16.458;2023-04-24T04:15:31;0.80;;;0.55;;
73729;SDS011;62036;48.128;16.458;2023-04-24T04:17:57;1.55;;;0.98;;
73729;SDS011;62036;48.128;16.458;2023-04-24T04:20:23;1.73;;;0.68;;
73729;SDS011;62036;48.128;16.458;2023-04-24T04:22:49;2.60;;;1.30;;
73729;SDS011;62036;48.128;16.458;2023-04-24T04:25:15;1.55;;;0.70;;
73729;SDS011;62036;48.128;16.458;2023-04-24T04:27:44;0.80;;;0.80;;
73729;SDS011;62036;48.128;16.458;2023-04-24T04:30:10;2.28;;;1.20;;
73729;SDS011;62036;48.128;16.458;2023-04-24T04:32:37;2.00;;;1.20;;
73729;SDS011;62036;48.128;16.458;2023-04-24T04:35:03;2.22;;;0.85;;
73729;SDS011;62036;48.128;16.458;2023-04-24T04:37:29;1.00;;;0.70;;
73729;SDS011;62036;48.128;16.458;2023-04-24T04:39:56;1.90;;;1.02;;
73729;SDS011;62036;48.128;16.458;2023-04-24T04:42:23;1.60;;;0.82;;
73729;SDS011;62036;48.128;16.458;2023-04-24T04:44:49;1.23;;;0.88;;
73729;SDS011;62036;48.128;16.458;2023-04-24T04:47:15;1.40;;;0.95;;
73729;SDS011;62036;48.128;16.458;2023-04-24T04:49:42;1.85;;;0.88;;
73729;SDS011;62036;48.128;16.458;2023-04-24T04:52:08;2.15;;;1.08;;
73729;SDS011;62036;48.128;16.458;2023-04-24T04:54:34;1.95;;;1.20;;
73729;SDS011;62036;48.128;16.458;2023-04-24T04:57:01;2.42;;;1.23;;
73729;SDS011;62036;48.128;16.458;2023-04-24T04:59:27;1.77;;;1.42;;
73729;SDS011;62036;48.128;16.458;2023-04-24T05:01:53;1.08;;;0.93;;
73729;SDS011;62036;48.128;16.458;2023-04-24T05:04:19;2.83;;;0.90;;
73729;SDS011;62036;48.128;16.458;2023-04-24T05:06:45;1.10;;;0.80;;
73729;SDS011;62036;48.128;16.458;2023-04-24T05:09:12;1.00;;;0.80;;
73729;SDS011;62036;48.128;16.458;2023-04-24T05:11:38;1.23;;;0.70;;
73729;SDS011;62036;48.128;16.458;2023-04-24T05:14:04;1.23;;;0.90;;
73729;SDS011;62036;48.128;16.458;2023-04-24T05:16:30;1.55;;;1.00;;
73729;SDS011;62036;48.128;16.458;2023-04-24T05:18:56;0.60;;;0.60;;
73729;SDS011;62036;48.128;16.458;2023-04-24T05:21:22;1.25;;;0.90;;
73729;SDS011;62036;48.128;16.458;2023-04-24T05:23:48;1.65;;;1.05;;
73729;SDS011;62036;48.128;16.458;2023-04-24T05:26:14;2.22;;;0.85;;
73729;SDS011;62036;48.128;16.458;2023-04-24T05:28:40;1.02;;;0.80;;
73729;SDS011;62036;48.128;16.458;2023-04-24T05:31:06;0.63;;;0.63;;
73729;SDS011;62036;48.128;16.458;2023-04-24T05:33:32;1.20;;;0.82;;
73729;SDS011;62036;48.128;16.458;2023-04-24T05:35:58;1.02;;;0.60;;
73729;SDS011;62036;48.128;16.458;2023-04-24T05:38:24;0.98;;;0.70;;
73729;SDS011;62036;48.128;16.458;2023-04-24T05:40:50;1.83;;;0.95;;
73729;SDS011;62036;48.128;16.458;2023-04-24T05:43:16;1.27;;;1.13;;
73729;SDS011;62036;48.128;16.458;2023-04-24T05:45:42;1.00;;;0.98;;
73729;SDS011;62036;48.128;16.458;2023-04-24T05:48:08;1.02;;;0.77;;
73729;SDS011;62036;48.128;16.458;2023-04-24T05:50:34;1.08;;;0.60;;
73729;SDS011;62036;48.128;16.458;2023-04-24T05:53:01;1.85;;;0.93;;
73729;SDS011;62036;48.128;16.458;2023-04-24T05:55:27;1.50;;;1.17;;
73729;SDS011;62036;48.128;16.458;2023-04-24T05:57:53;1.20;;;0.85;;
73729;SDS011;62036;48.128;16.458;2023-04-24T06:00:19;1.52;;;0.90;;
73729;SDS011;62036;48.128;16.458;2023-04-24T06:02:46;0.95;;;0.80;;
73729;SDS011;62036;48.128;16.458;2023-04-24T06:05:12;2.25;;;1.35;;
73729;SDS011;62036;48.128;16.458;2023-04-24T06:07:39;1.13;;;0.77;;
73729;SDS011;62036;48.128;16.458;2023-04-24T06:10:05;1.20;;;0.90;;
73729;SDS011;62036;48.128;16.458;2023-04-24T06:12:32;1.17;;;1.00;;
73729;SDS011;62036;48.128;16.458;2023-04-24T06:14:58;1.02;;;0.50;;
73729;SDS011;62036;48.128;16.458;2023-04-24T06:17:24;2.67;;;1.00;;
73729;SDS011;62036;48.128;16.458;2023-04-24T06:19:50;1.20;;;0.80;;
73729;SDS011;62036;48.128;16.458;2023-04-24T06:22:16;0.77;;;0.65;;
73729;SDS011;62036;48.128;16.458;2023-04-24T06:24:42;1.90;;;0.90;;
73729;SDS011;62036;48.128;16.458;2023-04-24T06:27:08;1.00;;;0.70;;
73729;SDS011;62036;48.128;16.458;2023-04-24T06:29:35;1.23;;;0.70;;
73729;SDS011;62036;48.128;16.458;2023-04-24T06:32:01;0.85;;;0.57;;
73729;SDS011;62036;48.128;16.458;2023-04-24T06:34:27;1.63;;;0.88;;
73729;SDS011;62036;48.128;16.458;2023-04-24T06:36:53;0.73;;;0.73;;
73729;SDS011;62036;48.128;16.458;2023-04-24T06:39:20;0.98;;;0.75;;
73729;SDS011;62036;48.128;16.458;2023-04-24T06:41:46;0.95;;;0.70;;
73729;SDS011;62036;48.128;16.458;2023-04-24T06:44:12;1.00;;;0.73;;
73729;SDS011;62036;48.128;16.458;2023-04-24T06:46:39;0.70;;;0.68;;
73729;SDS011;62036;48.128;16.458;2023-04-24T06:49:06;0.75;;;0.70;;
73729;SDS011;62036;48.128;16.458;2023-04-24T06:51:32;1.27;;;0.75;;
73729;SDS011;62036;48.128;16.458;2023-04-24T06:53:58;0.80;;;0.80;;
73729;SDS011;62036;48.128;16.458;2023-04-24T06:56:25;1.83;;;0.68;;
73729;SDS011;62036;48.128;16.458;2023-04-24T06:58:51;0.65;;;0.65;;
73729;SDS011;62036;48.128;16.458;2023-04-24T07:01:18;1.33;;;0.50;;
73729;SDS011;62036;48.128;16.458;2023-04-24T07:03:44;0.50;;;0.50;;
73729;SDS011;62036;48.128;16.458;2023-04-24T07:06:10;1.77;;;0.45;;
73729;SDS011;62036;48.128;16.458;2023-04-24T07:08:36;0.52;;;0.52;;
73729;SDS011;62036;48.128;16.458;2023-04-24T07:11:02;1.02;;;0.60;;
73729;SDS011;62036;48.128;16.458;2023-04-24T07:13:28;0.77;;;0.60;;
73729;SDS011;62036;48.128;16.458;2023-04-24T07:15:54;1.52;;;1.00;;
73729;SDS011;62036;48.128;16.458;2023-04-24T07:18:21;0.65;;;0.47;;
73729;SDS011;62036;48.128;16.458;2023-04-24T07:20:47;0.65;;;0.52;;
73729;SDS011;62036;48.128;16.458;2023-04-24T07:23:15;0.63;;;0.43;;
73729;SDS011;62036;48.128;16.458;2023-04-24T07:25:41;1.30;;;0.32;;
73729;SDS011;62036;48.128;16.458;2023-04-24T07:28:07;0.70;;;0.55;;
73729;SDS011;62036;48.128;16.458;2023-04-24T07:30:33;0.52;;;0.50;;
73729;SDS011;62036;48.128;16.458;2023-04-24T07:32:59;0.82;;;0.50;;
73729;SDS011;62036;48.128;16.458;2023-04-24T07:35:26;1.95;;;0.52;;
73729;SDS011;62036;48.128;16.458;2023-04-24T07:37:52;1.02;;;0.45;;
73729;SDS011;62036;48.128;16.458;2023-04-24T07:40:19;0.85;;;0.40;;
73729;SDS011;62036;48.128;16.458;2023-04-24T07:42:45;0.95;;;0.45;;
73729;SDS011;62036;48.128;16.458;2023-04-24T07:45:13;0.40;;;0.30;;
73729;SDS011;62036;48.128;16.458;2023-04-24T07:47:41;0.57;;;0.57;;
73729;SDS011;62036;48.128;16.458;2023-04-24T07:50:09;0.30;;;0.30;;
73729;SDS011;62036;48.128;16.458;2023-04-24T07:52:35;0.55;;;0.50;;
73729;SDS011;62036;48.128;16.458;2023-04-24T07:55:01;1.70;;;0.50;;
73729;SDS011;62036;48.128;16.458;2023-04-24T07:57:28;1.48;;;0.43;;
73729;SDS011;62036;48.128;16.458;2023-04-24T07:59:54;0.32;;;0.32;;
73729;SDS011;62036;48.128;16.458;2023-04-24T08:02:20;0.75;;;0.45;;
73729;SDS011;62036;48.128;16.458;2023-04-24T08:04:51;0.73;;;0.60;;
73729;SDS011;62036;48.128;16.458;2023-04-24T08:07:17;0.50;;;0.38;;
73729;SDS011;62036;48.128;16.458;2023-04-24T08:09:43;0.20;;;0.20;;
73729;SDS011;62036;48.128;16.458;2023-04-24T08:12:09;1.05;;;0.43;;
73729;SDS011;62036;48.128;16.458;2023-04-24T08:14:35;1.25;;;0.40;;
73729;SDS011;62036;48.128;16.458;2023-04-24T08:17:01;0.60;;;0.60;;
73729;SDS011;62036;48.128;16.458;2023-04-24T08:19:28;0.45;;;0.32;;
73729;SDS011;62036;48.128;16.458;2023-04-24T08:21:54;0.40;;;0.40;;
73729;SDS011;62036;48.128;16.458;2023-04-24T08:24:20;0.63;;;0.43;;
73729;SDS011;62036;48.128;16.458;2023-04-24T08:26:46;0.40;;;0.40;;
73729;SDS011;62036;48.128;16.458;2023-04-24T08:29:15;0.32;;;0.30;;
73729;SDS011;62036;48.128;16.458;2023-04-24T08:31:41;0.35;;;0.35;;
73729;SDS011;62036;48.128;16.458;2023-04-24T08:34:07;0.80;;;0.70;;
73729;SDS011;62036;48.128;16.458;2023-04-24T08:36:33;0.65;;;0.50;;
73729;SDS011;62036;48.128;16.458;2023-04-24T08:38:59;0.95;;;0.60;;
73729;SDS011;62036;48.128;16.458;2023-04-24T08:41:25;0.95;;;0.30;;
73729;SDS011;62036;48.128;16.458;2023-04-24T08:43:52;0.65;;;0.25;;
73729;SDS011;62036;48.128;16.458;2023-04-24T08:46:20;0.50;;;0.50;;
73729;SDS011;62036;48.128;16.458;2023-04-24T08:48:46;0.60;;;0.60;;
73729;SDS011;62036;48.128;16.458;2023-04-24T08:51:12;0.75;;;0.30;;
73729;SDS011;62036;48.128;16.458;2023-04-24T08:53:38;0.30;;;0.30;;
73729;SDS011;62036;48.128;16.458;2023-04-24T08:56:04;0.63;;;0.30;;
73729;SDS011;62036;48.128;16.458;2023-04-24T08:58:31;0.65;;;0.65;;
73729;SDS011;62036;48.128;16.458;2023-04-24T09:00:57;0.70;;;0.50;;
73729;SDS011;62036;48.128;16.458;2023-04-24T09:03:24;1.67;;;1.00;;
73729;SDS011;62036;48.128;16.458;2023-04-24T09:05:50;0.40;;;0.35;;
73729;SDS011;62036;48.128;16.458;2023-04-24T09:08:18;1.75;;;1.20;;
73729;SDS011;62036;48.128;16.458;2023-04-24T09:10:45;0.20;;;0.20;;
73729;SDS011;62036;48.128;16.458;2023-04-24T09:13:11;0.57;;;0.55;;
73729;SDS011;62036;48.128;16.458;2023-04-24T09:15:38;0.73;;;0.50;;
73729;SDS011;62036;48.128;16.458;2023-04-24T09:18:04;0.15;;;0.13;;
73729;SDS011;62036;48.128;16.458;2023-04-24T09:20:38;0.52;;;0.30;;
73729;SDS011;62036;48.128;16.458;2023-04-24T09:23:19;0.50;;;0.38;;
73729;SDS011;62036;48.128;16.458;2023-04-24T09:25:45;0.43;;;0.28;;
73729;SDS011;62036;48.128;16.458;2023-04-24T09:28:11;1.75;;;0.30;;
73729;SDS011;62036;48.128;16.458;2023-04-24T09:30:37;0.65;;;0.22;;
73729;SDS011;62036;48.128;16.458;2023-04-24T09:33:13;0.85;;;0.30;;
73729;SDS011;62036;48.128;16.458;2023-04-24T09:35:40;1.00;;;0.55;;
73729;SDS011;62036;48.128;16.458;2023-04-24T09:38:07;0.13;;;0.13;;
73729;SDS011;62036;48.128;16.458;2023-04-24T09:40:34;0.25;;;0.20;;
73729;SDS011;62036;48.128;16.458;2023-04-24T09:43:00;0.20;;;0.20;;
73729;SDS011;62036;48.128;16.458;2023-04-24T09:45:37;1.05;;;0.50;;
73729;SDS011;62036;48.128;16.458;2023-04-24T09:48:04;0.13;;;0.13;;
73729;SDS011;62036;48.128;16.458;2023-04-24T09:50:31;0.25;;;0.25;;
73729;SDS011;62036;48.128;16.458;2023-04-24T09:52:58;0.20;;;0.20;;
73729;SDS011;62036;48.128;16.458;2023-04-24T09:55:24;0.60;;;0.20;;
73729;SDS011;62036;48.128;16.458;2023-04-24T09:57:52;0.60;;;0.32;;
73729;SDS011;62036;48.128;16.458;2023-04-24T10:00:23;0.38;;;0.30;;
73729;SDS011;62036;48.128;16.458;2023-04-24T10:02:50;1.17;;;0.40;;
73729;SDS011;62036;48.128;16.458;2023-04-24T10:05:17;0.45;;;0.45;;
73729;SDS011;62036;48.128;16.458;2023-04-24T10:07:43;0.22;;;0.22;;
73729;SDS011;62036;48.128;16.458;2023-04-24T10:10:12;0.47;;;0.30;;
73729;SDS011;62036;48.128;16.458;2023-04-24T10:12:38;0.10;;;0.10;;
73729;SDS011;62036;48.128;16.458;2023-04-24T10:15:05;0.73;;;0.50;;
73729;SDS011;62036;48.128;16.458;2023-04-24T10:17:34;0.63;;;0.28;;
73729;SDS011;62036;48.128;16.458;2023-04-24T10:20:08;0.30;;;0.30;;
73729;SDS011;62036;48.128;16.458;2023-04-24T10:22:34;1.27;;;0.40;;
73729;SDS011;62036;48.128;16.458;2023-04-24T10:25:00;0.98;;;0.40;;
73729;SDS011;62036;48.128;16.458;2023-04-24T10:27:28;0.40;;;0.32;;
73729;SDS011;62036;48.128;16.458;2023-04-24T10:29:55;0.52;;;0.40;;
73729;SDS011;62036;48.128;16.458;2023-04-24T10:32:22;0.40;;;0.30;;
73729;SDS011;62036;48.128;16.458;2023-04-24T10:34:48;0.70;;;0.40;;
73729;SDS011;62036;48.128;16.458;2023-04-24T10:37:14;0.52;;;0.30;;
73729;SDS011;62036;48.128;16.458;2023-04-24T10:39:40;0.20;;;0.20;;
73729;SDS011;62036;48.128;16.458;2023-04-24T10:42:15;0.10;;;0.10;;
73729;SDS011;62036;48.128;16.458;2023-04-24T10:44:41;0.17;;;0.17;;
73729;SDS011;62036;48.128;16.458;2023-04-24T10:47:12;0.88;;;0.70;;
73729;SDS011;62036;48.128;16.458;2023-04-24T10:49:39;1.45;;;0.22;;
73729;SDS011;62036;48.128;16.458;2023-04-24T10:52:05;0.50;;;0.50;;
73729;SDS011;62036;48.128;16.458;2023-04-24T10:59:48;0.50;;;0.40;;
73729;SDS011;62036;48.128;16.458;2023-04-24T11:02:17;0.20;;;0.20;;
73729;SDS011;62036;48.128;16.458;2023-04-24T11:04:43;0.57;;;0.45;;
73729;SDS011;62036;48.128;16.458;2023-04-24T11:07:10;0.40;;;0.30;;
73729;SDS011;62036;48.128;16.458;2023-04-24T11:09:36;0.55;;;0.10;;
73729;SDS011;62036;48.128;16.458;2023-04-24T11:12:09;0.30;;;0.20;;
73729;SDS011;62036;48.128;16.458;2023-04-24T11:17:34;0.10;;;0.10;;
73729;SDS011;62036;48.128;16.458;2023-04-24T11:20:11;0.45;;;0.45;;
73729;SDS011;62036;48.128;16.458;2023-04-24T11:22:38;0.10;;;0.10;;
73729;SDS011;62036;48.128;16.458;2023-04-24T11:25:05;0.30;;;0.30;;
73729;SDS011;62036;48.128;16.458;2023-04-24T11:27:34;0.20;;;0.20;;
73729;SDS011;62036;48.128;16.458;2023-04-24T11:30:03;0.30;;;0.10;;
73729;SDS011;62036;48.128;16.458;2023-04-24T11:35:12;0.45;;;0.20;;
73729;SDS011;62036;48.128;16.458;2023-04-24T11:37:40;0.40;;;0.40;;
73729;SDS011;62036;48.128;16.458;2023-04-24T11:40:15;0.15;;;0.15;;
73729;SDS011;62036;48.128;16.458;2023-04-24T11:42:45;0.30;;;0.20;;
73729;SDS011;62036;48.128;16.458;2023-04-24T11:45:16;0.20;;;0.20;;
73729;SDS011;62036;48.128;16.458;2023-04-24T11:47:42;0.28;;;0.15;;
73729;SDS011;62036;48.128;16.458;2023-04-24T11:50:10;0.20;;;0.20;;
73729;SDS011;62036;48.128;16.458;2023-04-24T11:52:37;0.15;;;0.15;;
73729;SDS011;62036;48.128;16.458;2023-04-24T11:55:03;0.20;;;0.10;;
73729;SDS011;62036;48.128;16.458;2023-04-24T11:57:29;0.20;;;0.20;;
73729;SDS011;62036;48.128;16.458;2023-04-24T12:00:02;0.10;;;0.10;;
73729;SDS011;62036;48.128;16.458;2023-04-24T12:02:30;0.20;;;0.13;;
73729;SDS011;62036;48.128;16.458;2023-04-24T12:04:56;0.22;;;0.15;;
73729;SDS011;62036;48.128;16.458;2023-04-24T12:07:22;0.08;;;0.08;;
73729;SDS011;62036;48.128;16.458;2023-04-24T12:09:55;0.32;;;0.30;;
73729;SDS011;62036;48.128;16.458;2023-04-24T12:12:23;0.20;;;0.20;;
73729;SDS011;62036;48.128;16.458;2023-04-24T12:14:54;0.10;;;0.10;;
73729;SDS011;62036;48.128;16.458;2023-04-24T12:17:24;0.10;;;0.10;;
73729;SDS011;62036;48.128;16.458;2023-04-24T12:19:51;0.10;;;0.10;;
73729;SDS011;62036;48.128;16.458;2023-04-24T12:22:18;1.75;;;0.20;;
73729;SDS011;62036;48.128;16.458;2023-04-24T12:24:57;2.15;;;0.20;;
73729;SDS011;62036;48.128;16.458;2023-04-24T12:27:24;0.95;;;0.60;;
73729;SDS011;62036;48.128;16.458;2023-04-24T12:29:51;0.30;;;0.22;;
73729;SDS011;62036;48.128;16.458;2023-04-24T12:32:17;0.20;;;0.20;;
73729;SDS011;62036;48.128;16.458;2023-04-24T12:34:43;1.67;;;0.55;;
73729;SDS011;62036;48.128;16.458;2023-04-24T12:37:10;0.22;;;0.20;;
73729;SDS011;62036;48.128;16.458;2023-04-24T12:39:36;1.00;;;0.25;;
73729;SDS011;62036;48.128;16.458;2023-04-24T12:42:02;0.35;;;0.30;;
73729;SDS011;62036;48.128;16.458;2023-04-24T12:44:33;0.40;;;0.40;;
73729;SDS011;62036;48.128;16.458;2023-04-24T12:47:00;0.43;;;0.43;;
73729;SDS011;62036;48.128;16.458;2023-04-24T12:49:27;0.30;;;0.30;;
73729;SDS011;62036;48.128;16.458;2023-04-24T12:51:53;0.60;;;0.60;;
73729;SDS011;62036;48.128;16.458;2023-04-24T12:54:19;0.65;;;0.47;;
73729;SDS011;62036;48.128;16.458;2023-04-24T12:56:45;0.32;;;0.32;;
73729;SDS011;62036;48.128;16.458;2023-04-24T12:59:11;0.60;;;0.50;;
73729;SDS011;62036;48.128;16.458;2023-04-24T13:01:37;0.80;;;0.50;;
73729;SDS011;62036;48.128;16.458;2023-04-24T13:04:04;3.17;;;0.45;;
73729;SDS011;62036;48.128;16.458;2023-04-24T13:06:30;0.45;;;0.40;;
73729;SDS011;62036;48.128;16.458;2023-04-24T13:08:57;0.30;;;0.30;;
73729;SDS011;62036;48.128;16.458;2023-04-24T13:11:23;0.50;;;0.30;;
73729;SDS011;62036;48.128;16.458;2023-04-24T13:13:49;0.73;;;0.40;;
73729;SDS011;62036;48.128;16.458;2023-04-24T13:16:15;0.40;;;0.40;;
73729;SDS011;62036;48.128;16.458;2023-04-24T13:18:41;1.05;;;0.38;;
73729;SDS011;62036;48.128;16.458;2023-04-24T13:21:07;0.98;;;0.60;;
73729;SDS011;62036;48.128;16.458;2023-04-24T13:23:33;0.40;;;0.30;;
73729;SDS011;62036;48.128;16.458;2023-04-24T13:26:00;0.75;;;0.40;;
73729;SDS011;62036;48.128;16.458;2023-04-24T13:28:26;0.47;;;0.28;;
73729;SDS011;62036;48.128;16.458;2023-04-24T13:30:54;1.05;;;0.50;;
73729;SDS011;62036;48.128;16.458;2023-04-24T13:33:20;1.40;;;0.57;;
73729;SDS011;62036;48.128;16.458;2023-04-24T13:35:46;0.70;;;0.35;;
73729;SDS011;62036;48.128;16.458;2023-04-24T13:38:12;1.05;;;0.55;;
73729;SDS011;62036;48.128;16.458;2023-04-24T13:40:38;0.55;;;0.47;;
73729;SDS011;62036;48.128;16.458;2023-04-24T13:43:04;1.42;;;0.75;;
73729;SDS011;62036;48.128;16.458;2023-04-24T13:45:30;0.45;;;0.43;;
73729;SDS011;62036;48.128;16.458;2023-04-24T13:47:56;1.10;;;0.75;;
73729;SDS011;62036;48.128;16.458;2023-04-24T13:50:22;0.60;;;0.50;;
73729;SDS011;62036;48.128;16.458;2023-04-24T13:52:48;0.47;;;0.43;;
73729;SDS011;62036;48.128;16.458;2023-04-24T13:55:14;1.45;;;0.52;;
73729;SDS011;62036;48.128;16.458;2023-04-24T13:57:40;1.65;;;0.68;;
73729;SDS011;62036;48.128;16.458;2023-04-24T14:00:07;0.40;;;0.40;;
73729;SDS011;62036;48.128;16.458;2023-04-24T14:02:35;0.98;;;0.45;;
73729;SDS011;62036;48.128;16.458;2023-04-24T14:05:02;0.63;;;0.43;;
73729;SDS011;62036;48.128;16.458;2023-04-24T14:07:31;1.15;;;0.57;;
73729;SDS011;62036;48.128;16.458;2023-04-24T14:09:57;0.35;;;0.35;;
73729;SDS011;62036;48.128;16.458;2023-04-24T14:12:23;1.50;;;0.80;;
73729;SDS011;62036;48.128;16.458;2023-04-24T14:14:49;1.77;;;0.65;;
73729;SDS011;62036;48.128;16.458;2023-04-24T14:17:15;1.35;;;0.90;;
73729;SDS011;62036;48.128;16.458;2023-04-24T14:19:41;0.90;;;0.80;;
73729;SDS011;62036;48.128;16.458;2023-04-24T14:22:07;0.82;;;0.63;;
73729;SDS011;62036;48.128;16.458;2023-04-24T14:24:33;1.20;;;1.10;;
73729;SDS011;62036;48.128;16.458;2023-04-24T14:26:59;0.57;;;0.38;;
73729;SDS011;62036;48.128;16.458;2023-04-24T14:29:26;0.13;;;0.13;;
73729;SDS011;62036;48.128;16.458;2023-04-24T14:31:52;0.60;;;0.40;;
73729;SDS011;62036;48.128;16.458;2023-04-24T14:34:18;0.70;;;0.47;;
73729;SDS011;62036;48.128;16.458;2023-04-24T14:36:44;0.80;;;0.80;;
73729;SDS011;62036;48.128;16.458;2023-04-24T14:39:10;0.75;;;0.40;;
73729;SDS011;62036;48.128;16.458;2023-04-24T14:41:37;15.35;;;7.60;;